CDT,Max TemperatureF,Mean TemperatureF,Min TemperatureF,Max Dew PointF,MeanDew PointF,Min DewpointF,Max Humidity, Mean Humidity, Min Humidity, Max Sea Level PressureIn, Mean Sea Level PressureIn, Min Sea Level PressureIn, Max VisibilityMiles, Mean VisibilityMiles, Min VisibilityMiles, Max Wind SpeedMPH, Mean Wind SpeedMPH, Max Gust SpeedMPH,PrecipitationIn, CloudCover, Events, WindDirDegrees
2013-9-1,77,66,54,71,61,55,100,79,58,30.01,29.91,29.79,10,10,10,22,10,29,T,3,Rain,329
2013-9-2,73,60,46,55,52,48,100,73,46,30.11,30.07,30.02,10,10,10,13,5,17,0.00,0,,341
2013-9-3,81,62,43,64,51,44,100,73,45,30.12,30.08,30.02,10,6,0,10,5,14,0.00,2,Fog,184
2013-9-4,90,75,59,68,63,59,100,69,38,30.13,30.09,30.04,10,10,6,12,5,20,0.00,0,,221
2013-9-5,87,75,62,68,65,62,100,76,51,30.20,30.14,30.10,10,10,7,15,5,18,0.00,0,,175
2013-9-6,91,77,62,70,66,63,100,74,47,30.09,29.99,29.87,10,10,10,23,10,29,0.01,1,,183
2013-9-7,90,77,64,74,70,64,100,80,59,29.95,29.90,29.88,10,8,4,15,6,21,0.00,0,,39
2013-9-8,75,71,67,72,69,66,100,94,87,29.99,29.93,29.85,9,6,4,17,7,21,0.00,6,,88
2013-9-9,96,82,67,71,68,65,100,68,36,29.87,29.77,29.67,10,6,0,23,10,31,0.00,4,Fog,180
2013-9-10,82,72,61,68,65,61,100,76,51,30.01,29.93,29.83,10,10,7,12,4,14,T,2,,317
2013-9-11,86,74,62,66,61,55,100,70,40,30.09,30.06,30.02,10,10,7,13,6,18,0.00,0,,284
2013-9-12,77,63,49,52,49,47,93,66,38,30.24,30.19,30.11,10,10,10,21,9,28,0.00,1,,348
2013-9-13,72,57,42,50,45,42,100,68,35,30.28,30.20,30.11,10,10,10,9,4,14,0.00,0,,74
2013-9-14,72,57,42,56,48,41,100,71,41,30.10,29.99,29.84,10,10,4,22,10,29,0.10,4,Rain,187
2013-9-15,66,56,46,59,55,48,100,82,63,30.31,30.06,29.81,10,9,2,21,10,28,0.30,6,Rain,11
2013-9-16,69,54,38,54,47,39,100,78,55,30.39,30.34,30.25,10,8,1,14,6,18,0.00,3,,78
2013-9-17,63,57,50,61,56,49,100,95,89,30.25,30.05,29.92,10,4,0,17,11,23,0.02,8,Fog-Rain,155
2013-9-18,89,76,63,71,67,63,100,76,52,29.90,29.78,29.67,10,6,1,22,13,30,0.01,5,,173
2013-9-19,77,68,58,70,63,50,100,77,53,29.91,29.74,29.63,10,10,9,21,10,26,T,2,,270
2013-9-20,61,51,41,52,47,41,96,77,57,30.01,29.96,29.91,10,10,10,20,10,26,0.00,5,,296
2013-9-21,73,55,37,45,42,38,100,66,31,30.04,29.98,29.90,10,10,10,7,4,13,0.00,0,,284
2013-9-22,82,63,44,55,50,43,93,64,34,29.93,29.87,29.80,10,10,10,23,12,31,0.00,0,,162
2013-9-23,78,64,50,53,50,48,96,66,36,29.90,29.86,29.80,10,10,10,25,13,33,0.00,0,,153
2013-9-24,74,61,47,55,52,47,100,77,53,29.95,29.91,29.87,10,10,9,12,4,18,T,2,,106
2013-9-25,77,60,42,54,48,43,100,70,39,29.97,29.92,29.82,10,5,0,20,8,25,0.00,0,Fog,148
2013-9-26,85,71,57,61,58,53,100,72,43,29.87,29.83,29.77,10,8,4,28,16,36,0.00,1,,154
2013-9-27,88,77,66,64,61,58,93,66,39,29.87,29.81,29.77,10,10,5,31,17,41,0.04,1,Rain,164
2013-9-28,71,57,42,65,53,40,100,73,46,30.01,29.82,29.65,10,9,4,24,12,31,0.09,5,Rain,241
2013-9-29,79,60,41,45,42,38,96,62,27,30.01,29.92,29.82,10,10,10,26,12,35,0.00,0,,201
2013-9-30,82,67,52,52,49,45,83,57,31,29.80,29.70,29.62,10,10,10,25,15,33,0.00,0,,192